createdAt,value
2017-02-24T00:00:39.029Z,0
2017-02-24T00:01:39.017Z,0
2017-02-24T00:02:39.062Z,0
2017-02-24T00:03:39.074Z,0
2017-02-24T00:04:39.008Z,0
2017-02-24T00:05:38.970Z,0
2017-02-24T00:06:38.987Z,0
2017-02-24T00:07:39.100Z,0
2017-02-24T00:08:39.099Z,0
2017-02-24T00:09:38.965Z,0
2017-02-24T00:10:38.652Z,0
2017-02-24T00:11:38.679Z,0
2017-02-24T00:12:39.121Z,0
2017-02-24T00:13:39.066Z,0
2017-02-24T00:14:39.183Z,0
2017-02-24T00:15:39.100Z,0
2017-02-24T00:16:38.652Z,0
2017-02-24T00:17:39.119Z,0
2017-02-24T00:18:39.063Z,0
2017-02-24T00:19:39.163Z,0
2017-02-24T00:20:39.245Z,0
2017-02-24T00:21:39.131Z,0
2017-02-24T00:22:38.695Z,0
2017-02-24T00:23:39.197Z,0
2017-02-24T00:24:39.110Z,0
2017-02-24T00:25:39.104Z,0
2017-02-24T00:26:38.730Z,0
2017-02-24T00:27:39.163Z,0
2017-02-24T00:28:38.725Z,0
2017-02-24T00:29:38.885Z,0
2017-02-24T00:30:39.147Z,0
2017-02-24T00:31:39.207Z,0
2017-02-24T00:32:39.155Z,0
2017-02-24T00:33:39.313Z,0
2017-02-24T00:34:39.156Z,0
2017-02-24T00:35:38.834Z,0
2017-02-24T00:36:38.884Z,0
2017-02-24T00:37:39.231Z,0
2017-02-24T00:38:38.823Z,0
2017-02-24T00:39:39.129Z,0
2017-02-24T00:40:38.421Z,0
2017-02-24T00:41:38.912Z,0
2017-02-24T00:42:39.265Z,0
2017-02-24T00:43:53.777Z,0
2017-02-24T00:44:39.893Z,0
2017-02-24T00:45:38.534Z,0
2017-02-24T00:46:39.296Z,0
2017-02-24T00:47:39.017Z,0
2017-02-24T00:48:38.170Z,0
2017-02-24T00:49:38.931Z,0
2017-02-24T00:50:39.376Z,0
2017-02-24T00:51:39.324Z,0
2017-02-24T00:52:38.931Z,0
2017-02-24T00:53:39.344Z,0
2017-02-24T00:54:39.308Z,0
2017-02-24T00:55:39.368Z,0
2017-02-24T00:56:39.306Z,0
2017-02-24T00:57:39.375Z,0
2017-02-24T00:58:39.328Z,0
2017-02-24T00:59:39.379Z,0
2017-02-24T01:00:38.669Z,0
2017-02-24T01:01:39.352Z,0
2017-02-24T01:02:39.402Z,0
2017-02-24T01:03:39.407Z,0
2017-02-24T01:04:39.039Z,0
2017-02-24T01:05:38.686Z,0
2017-02-24T01:06:39.505Z,0
2017-02-24T01:07:39.489Z,0
2017-02-24T01:08:38.991Z,0
2017-02-24T01:09:39.455Z,0
2017-02-24T01:10:39.209Z,0
2017-02-24T01:11:39.022Z,0
2017-02-24T01:12:39.131Z,0
2017-02-24T01:13:48.418Z,0
2017-02-24T01:14:39.781Z,0
2017-02-24T01:15:39.144Z,0
2017-02-24T01:16:39.149Z,0
2017-02-24T01:17:39.460Z,0
2017-02-24T01:18:39.473Z,0
2017-02-24T01:19:39.218Z,0
2017-02-24T01:20:38.755Z,0
2017-02-24T01:21:39.536Z,0
2017-02-24T01:22:39.145Z,0
2017-02-24T01:23:39.142Z,0
2017-02-24T01:24:39.507Z,0
2017-02-24T01:25:39.852Z,0
2017-02-24T01:26:39.614Z,0
2017-02-24T01:27:39.169Z,0
2017-02-24T01:28:39.594Z,0
2017-02-24T01:29:39.180Z,0
2017-02-24T01:30:39.599Z,0
2017-02-24T01:31:39.245Z,0
2017-02-24T01:32:39.220Z,0
2017-02-24T01:33:39.609Z,0
2017-02-24T01:34:39.236Z,0
2017-02-24T01:35:39.576Z,0
2017-02-24T01:36:39.281Z,0
2017-02-24T01:37:39.735Z,0
2017-02-24T01:38:39.687Z,0
2017-02-24T01:39:39.307Z,0
2017-02-24T01:40:39.606Z,0
2017-02-24T01:41:40.771Z,0
2017-02-24T01:42:39.496Z,0
2017-02-24T01:43:54.171Z,0
2017-02-24T01:44:39.695Z,0
2017-02-24T01:45:39.760Z,0
2017-02-24T01:46:39.645Z,0
2017-02-24T01:47:39.769Z,0
2017-02-24T01:48:39.289Z,0
2017-02-24T01:49:39.660Z,0
2017-02-24T01:50:39.673Z,0
2017-02-24T01:51:39.688Z,0
2017-02-24T01:52:39.453Z,0
2017-02-24T01:53:39.804Z,0
2017-02-24T01:54:39.771Z,0
2017-02-24T01:55:39.829Z,0
2017-02-24T01:56:39.396Z,0
2017-02-24T01:57:39.742Z,0
2017-02-24T01:58:39.724Z,0
2017-02-24T01:59:38.998Z,0
2017-02-24T02:00:39.948Z,0
2017-02-24T02:01:39.868Z,0
2017-02-24T02:02:39.411Z,0
2017-02-24T02:03:39.760Z,0
2017-02-24T02:04:39.781Z,0
2017-02-24T02:05:39.395Z,0
2017-02-24T02:06:39.899Z,0
2017-02-24T02:07:39.049Z,0
2017-02-24T02:08:39.842Z,0
2017-02-24T02:09:39.406Z,0
2017-02-24T02:10:39.514Z,0
2017-02-24T02:11:39.978Z,0
2017-02-24T02:12:41.320Z,0
2017-02-24T02:13:39.944Z,0
2017-02-24T02:14:40.015Z,0
2017-02-24T02:15:39.898Z,0
2017-02-24T02:16:39.952Z,0
2017-02-24T02:17:39.568Z,0
2017-02-24T02:18:39.993Z,0
2017-02-24T02:19:39.948Z,0
2017-02-24T02:20:39.593Z,0
2017-02-24T02:21:40.052Z,0
2017-02-24T02:22:39.612Z,0
2017-02-24T02:23:40.001Z,0
2017-02-24T02:24:39.973Z,0
2017-02-24T02:25:40.075Z,0
2017-02-24T02:26:39.575Z,0
2017-02-24T02:27:40.446Z,0
2017-02-24T02:28:40.085Z,0
2017-02-24T02:29:40.052Z,0
2017-02-24T02:30:40.055Z,0
2017-02-24T02:31:39.662Z,0
2017-02-24T02:32:40.063Z,0
2017-02-24T02:33:40.121Z,0
2017-02-24T02:34:39.624Z,0
2017-02-24T02:35:40.147Z,0
2017-02-24T02:36:40.087Z,0
2017-02-24T02:37:39.701Z,0
2017-02-24T02:38:39.757Z,0
2017-02-24T02:39:40.724Z,0
2017-02-24T02:40:39.671Z,0
2017-02-24T02:41:40.133Z,0
2017-02-24T02:42:40.138Z,0
2017-02-24T02:43:39.748Z,0
2017-02-24T02:44:40.150Z,0
2017-02-24T02:45:39.362Z,0
2017-02-24T02:46:40.212Z,0
2017-02-24T02:47:40.165Z,0
2017-02-24T02:48:40.119Z,0
2017-02-24T02:49:40.141Z,0
2017-02-24T02:50:40.189Z,0
2017-02-24T02:51:40.246Z,0
2017-02-24T02:52:40.250Z,0
2017-02-24T02:53:40.271Z,0
2017-02-24T02:54:39.419Z,0
2017-02-24T02:55:40.514Z,0
2017-02-24T02:56:40.394Z,0
2017-02-24T02:57:40.183Z,0
2017-02-24T02:58:39.887Z,0
2017-02-24T02:59:40.290Z,0
2017-02-24T03:00:40.329Z,0
2017-02-24T03:01:40.293Z,0
2017-02-24T03:02:40.258Z,0
2017-02-24T03:03:39.993Z,0
2017-02-24T03:04:39.846Z,0
2017-02-24T03:05:40.363Z,0
2017-02-24T03:06:40.243Z,0
2017-02-24T03:07:39.954Z,0
2017-02-24T03:08:39.943Z,0
2017-02-24T03:09:40.413Z,0
2017-02-24T03:10:40.322Z,56
2017-02-24T03:11:40.692Z,72
2017-02-24T03:12:40.539Z,0
2017-02-24T03:13:40.352Z,0
2017-02-24T03:14:39.925Z,0
2017-02-24T03:15:40.377Z,0
2017-02-24T03:16:40.350Z,0
2017-02-24T03:17:40.869Z,0
2017-02-24T03:18:40.416Z,0
2017-02-24T03:19:39.984Z,0
2017-02-24T03:20:40.045Z,0
2017-02-24T03:21:40.436Z,0
2017-02-24T03:22:39.999Z,0
2017-02-24T03:23:40.001Z,0
2017-02-24T03:24:40.480Z,0
2017-02-24T03:25:39.983Z,0
2017-02-24T03:26:40.368Z,0
2017-02-24T03:27:40.406Z,0
2017-02-24T03:28:40.426Z,0
2017-02-24T03:29:40.451Z,0
2017-02-24T03:30:40.655Z,0
2017-02-24T03:31:40.492Z,0
2017-02-24T03:32:40.485Z,0
2017-02-24T03:33:40.031Z,0
2017-02-24T03:34:40.475Z,0
2017-02-24T03:35:40.497Z,0
2017-02-24T03:36:40.147Z,0
2017-02-24T03:37:40.447Z,0
2017-02-24T03:38:40.559Z,0
2017-02-24T03:39:40.122Z,0
2017-02-24T03:40:40.513Z,0
2017-02-24T03:41:40.569Z,0
2017-02-24T03:42:40.475Z,0
2017-02-24T03:43:54.651Z,0
2017-02-24T03:44:40.490Z,0
2017-02-24T03:45:40.109Z,0
2017-02-24T03:46:40.662Z,0
2017-02-24T03:47:40.616Z,0
2017-02-24T03:48:40.594Z,0
2017-02-24T03:49:40.534Z,0
2017-02-24T03:50:40.577Z,0
2017-02-24T03:52:23.916Z,0
2017-02-24T03:52:41.167Z,0
2017-02-24T03:53:40.724Z,0
2017-02-24T03:54:40.731Z,0
2017-02-24T03:55:39.889Z,0
2017-02-24T03:56:40.152Z,0
2017-02-24T03:57:40.548Z,0
2017-02-24T03:58:40.609Z,0
2017-02-24T03:59:40.610Z,0
2017-02-24T04:00:40.628Z,0
2017-02-24T04:01:40.621Z,0
2017-02-24T04:02:40.356Z,0
2017-02-24T04:03:40.637Z,0
2017-02-24T04:04:40.690Z,0
2017-02-24T04:05:40.203Z,0
2017-02-24T04:06:40.352Z,0
2017-02-24T04:07:41.413Z,0
2017-02-24T04:08:40.742Z,0
2017-02-24T04:09:40.629Z,0
2017-02-24T04:10:40.968Z,0
2017-02-24T04:11:40.761Z,0
2017-02-24T04:12:40.640Z,0
2017-02-24T04:13:55.235Z,0
2017-02-24T04:14:41.705Z,0
2017-02-24T04:15:40.974Z,0
2017-02-24T04:16:41.846Z,0
2017-02-24T04:17:40.675Z,0
2017-02-24T04:18:40.886Z,0
2017-02-24T04:19:39.951Z,0
2017-02-24T04:20:40.445Z,0
2017-02-24T04:21:40.359Z,0
2017-02-24T04:22:40.722Z,0
2017-02-24T04:23:40.710Z,0
2017-02-24T04:24:39.936Z,0
2017-02-24T04:25:42.001Z,0
2017-02-24T04:26:40.342Z,0
2017-02-24T04:27:41.261Z,0
2017-02-24T04:28:40.812Z,0
2017-02-24T04:29:40.860Z,0
2017-02-24T04:30:40.369Z,0
2017-02-24T04:31:40.918Z,0
2017-02-24T04:32:41.074Z,0
2017-02-24T04:33:40.444Z,0
2017-02-24T04:34:40.448Z,0
2017-02-24T04:35:40.455Z,0
2017-02-24T04:36:41.504Z,0
2017-02-24T04:37:40.876Z,0
2017-02-24T04:38:40.873Z,0
2017-02-24T04:39:40.524Z,0
2017-02-24T04:40:41.795Z,0
2017-02-24T04:41:40.891Z,0
2017-02-24T04:42:40.997Z,0
2017-02-24T04:43:59.705Z,0
2017-02-24T04:44:40.460Z,0
2017-02-24T04:45:40.880Z,0
2017-02-24T04:46:40.541Z,0
2017-02-24T04:47:41.243Z,0
2017-02-24T04:48:40.077Z,0
2017-02-24T04:49:40.835Z,0
2017-02-24T04:50:40.998Z,0
2017-02-24T04:51:40.178Z,0
2017-02-24T04:52:40.535Z,0
2017-02-24T04:53:40.963Z,0
2017-02-24T04:54:40.971Z,0
2017-02-24T04:55:40.129Z,0
2017-02-24T04:56:40.984Z,0
2017-02-24T04:57:40.946Z,0
2017-02-24T04:58:41.662Z,0
2017-02-24T04:59:40.624Z,0
2017-02-24T05:00:41.014Z,0
2017-02-24T05:01:41.029Z,0
2017-02-24T05:02:40.624Z,0
2017-02-24T05:03:41.028Z,0
2017-02-24T05:04:40.687Z,0
2017-02-24T05:05:40.990Z,0
2017-02-24T05:06:40.600Z,0
2017-02-24T05:07:40.658Z,0
2017-02-24T05:08:40.720Z,0
2017-02-24T05:09:41.188Z,0
2017-02-24T05:10:41.051Z,0
2017-02-24T05:11:41.038Z,0
2017-02-24T05:12:41.086Z,0
2017-02-24T05:13:42.057Z,0
2017-02-24T05:14:41.122Z,0
2017-02-24T05:15:41.108Z,0
2017-02-24T05:16:41.181Z,0
2017-02-24T05:17:40.722Z,0
2017-02-24T05:18:40.774Z,0
2017-02-24T05:19:41.115Z,0
2017-02-24T05:20:41.152Z,0
2017-02-24T05:21:41.250Z,0
2017-02-24T05:22:42.492Z,0
2017-02-24T05:23:41.170Z,0
2017-02-24T05:24:41.728Z,0
2017-02-24T05:25:40.439Z,0
2017-02-24T05:26:41.186Z,0
2017-02-24T05:27:41.145Z,0
2017-02-24T05:28:40.364Z,0
2017-02-24T05:29:40.971Z,0
2017-02-24T05:30:41.164Z,0
2017-02-24T05:31:41.214Z,0
2017-02-24T05:32:41.221Z,0
2017-02-24T05:33:42.332Z,0
2017-02-24T05:34:40.786Z,0
2017-02-24T05:35:41.441Z,0
2017-02-24T05:36:40.842Z,0
2017-02-24T05:37:40.513Z,0
2017-02-24T05:38:40.862Z,0
2017-02-24T05:39:40.824Z,0
2017-02-24T05:40:41.272Z,0
2017-02-24T05:41:41.277Z,0
2017-02-24T05:42:42.242Z,0
2017-02-24T05:43:40.901Z,0
2017-02-24T05:44:41.904Z,0
2017-02-24T05:45:40.917Z,0
2017-02-24T05:46:41.114Z,0
2017-02-24T05:47:40.983Z,0
2017-02-24T05:48:41.335Z,0
2017-02-24T05:49:40.885Z,0
2017-02-24T05:50:41.353Z,0
2017-02-24T05:51:40.965Z,0
2017-02-24T05:52:41.410Z,0
2017-02-24T05:53:42.368Z,0
2017-02-24T05:54:41.328Z,0
2017-02-24T05:55:41.426Z,0
2017-02-24T05:56:41.378Z,0
2017-02-24T05:57:41.344Z,0
2017-02-24T05:58:41.397Z,0
2017-02-24T05:59:41.352Z,0
2017-02-24T06:00:40.965Z,0
2017-02-24T06:01:40.630Z,0
2017-02-24T06:02:40.981Z,0
2017-02-24T06:03:41.477Z,4
2017-02-24T06:04:41.907Z,4
2017-02-24T06:05:41.441Z,0
2017-02-24T06:06:41.421Z,0
2017-02-24T06:07:41.461Z,4
2017-02-24T06:08:42.615Z,4
2017-02-24T06:09:41.422Z,4
2017-02-24T06:10:41.027Z,4
2017-02-24T06:11:41.430Z,4
2017-02-24T06:12:41.582Z,4
2017-02-24T06:13:41.611Z,4
2017-02-24T06:14:41.496Z,8
2017-02-24T06:15:41.467Z,8
2017-02-24T06:16:41.520Z,8
2017-02-24T06:17:42.958Z,4
2017-02-24T06:18:41.596Z,8
2017-02-24T06:19:42.278Z,8
2017-02-24T06:20:41.195Z,12
2017-02-24T06:21:41.150Z,8
2017-02-24T06:22:41.611Z,12
2017-02-24T06:23:41.572Z,16
2017-02-24T06:24:41.530Z,16
2017-02-24T06:25:41.523Z,20
2017-02-24T06:26:41.585Z,20
2017-02-24T06:27:41.247Z,24
2017-02-24T06:28:42.347Z,28
2017-02-24T06:29:41.604Z,28
2017-02-24T06:30:41.917Z,32
2017-02-24T06:31:41.636Z,40
2017-02-24T06:32:41.624Z,40
2017-02-24T06:33:41.224Z,48
2017-02-24T06:34:41.288Z,52
2017-02-24T06:35:41.242Z,56
2017-02-24T06:36:41.597Z,60
2017-02-24T06:37:41.560Z,64
2017-02-24T06:38:42.512Z,72
2017-02-24T06:39:42.463Z,76
2017-02-24T06:40:41.283Z,80
2017-02-24T06:41:41.930Z,84
2017-02-24T06:42:41.688Z,88
2017-02-24T06:43:41.689Z,96
2017-02-24T06:44:41.749Z,100
2017-02-24T06:45:41.708Z,108
2017-02-24T06:46:41.676Z,112
2017-02-24T06:47:41.770Z,120
2017-02-24T06:48:41.726Z,128
2017-02-24T06:49:41.680Z,136
2017-02-24T06:50:42.395Z,148
2017-02-24T06:51:41.320Z,160
2017-02-24T06:52:41.815Z,168
2017-02-24T06:53:41.814Z,176
2017-02-24T06:54:42.023Z,188
2017-02-24T06:55:41.389Z,200
2017-02-24T06:56:41.738Z,208
2017-02-24T06:57:41.750Z,220
2017-02-24T06:58:42.108Z,228
2017-02-24T06:59:41.814Z,236
2017-02-24T07:00:41.765Z,240
2017-02-24T07:01:42.272Z,248
2017-02-24T07:02:41.419Z,256
2017-02-24T07:03:41.387Z,264
2017-02-24T07:04:41.875Z,276
2017-02-24T07:05:41.849Z,280
2017-02-24T07:06:41.407Z,292
2017-02-24T07:07:41.521Z,300
2017-02-24T07:08:41.509Z,308
2017-02-24T07:09:41.864Z,320
2017-02-24T07:10:41.822Z,332
2017-02-24T07:11:41.432Z,352
2017-02-24T07:12:41.849Z,372
2017-02-24T07:14:00.744Z,408
2017-02-24T07:14:43.484Z,424
2017-02-24T07:15:41.918Z,448
2017-02-24T07:16:41.912Z,476
2017-02-24T07:17:41.918Z,496
2017-02-24T07:18:41.942Z,512
2017-02-24T07:19:41.886Z,528
2017-02-24T07:20:41.904Z,544
2017-02-24T07:21:42.039Z,564
2017-02-24T07:22:41.619Z,576
2017-02-24T07:23:42.110Z,592
2017-02-24T07:24:41.520Z,604
2017-02-24T07:25:42.865Z,632
2017-02-24T07:26:41.936Z,652
2017-02-24T07:27:41.934Z,668
2017-02-24T07:28:41.658Z,676
2017-02-24T07:29:42.049Z,688
2017-02-24T07:30:41.606Z,696
2017-02-24T07:31:42.119Z,708
2017-02-24T07:32:42.114Z,712
2017-02-24T07:33:41.573Z,712
2017-02-24T07:34:41.694Z,724
2017-02-24T07:35:41.592Z,736
2017-02-24T07:36:42.460Z,744
2017-02-24T07:37:41.713Z,752
2017-02-24T07:38:42.016Z,776
2017-02-24T07:39:41.731Z,808
2017-02-24T07:40:41.677Z,844
2017-02-24T07:41:42.145Z,876
2017-02-24T07:42:42.047Z,884
2017-02-24T07:43:59.052Z,904
2017-02-24T07:44:42.065Z,916
2017-02-24T07:45:43.294Z,928
2017-02-24T07:46:42.026Z,936
2017-02-24T07:47:42.677Z,956
2017-02-24T07:48:42.185Z,968
2017-02-24T07:49:42.434Z,980
2017-02-24T07:50:41.712Z,984
2017-02-24T07:51:42.210Z,984
2017-02-24T07:52:42.218Z,976
2017-02-24T07:53:41.776Z,960
2017-02-24T07:54:43.047Z,920
2017-02-24T07:55:41.801Z,884
2017-02-24T07:56:43.258Z,872
2017-02-24T07:57:42.208Z,884
2017-02-24T07:58:42.569Z,888
2017-02-24T07:59:41.869Z,884
2017-02-24T08:00:42.281Z,888
2017-02-24T08:01:42.179Z,932
2017-02-24T08:02:42.235Z,984
2017-02-24T08:03:41.852Z,1012
2017-02-24T08:04:41.846Z,972
2017-02-24T08:05:42.323Z,932
2017-02-24T08:06:41.822Z,980
2017-02-24T08:07:43.276Z,1084
2017-02-24T08:08:42.320Z,1188
2017-02-24T08:09:42.286Z,1324
2017-02-24T08:10:41.452Z,1680
2017-02-24T08:11:42.262Z,3408
2017-02-24T08:12:41.870Z,5468
2017-02-24T08:13:42.369Z,6716
2017-02-24T08:14:42.289Z,7024
2017-02-24T08:15:41.905Z,7136
2017-02-24T08:16:41.911Z,6784
2017-02-24T08:17:41.614Z,6964
2017-02-24T08:18:42.718Z,6796
2017-02-24T08:19:42.377Z,7292
2017-02-24T08:20:41.991Z,7680
2017-02-24T08:21:42.407Z,7044
2017-02-24T08:22:42.022Z,6740
2017-02-24T08:23:42.366Z,6908
2017-02-24T08:24:42.442Z,5892
2017-02-24T08:25:42.051Z,5272
2017-02-24T08:26:42.165Z,6160
2017-02-24T08:27:42.480Z,6732
2017-02-24T08:28:42.521Z,7072
2017-02-24T08:29:42.432Z,7068
2017-02-24T08:30:42.056Z,7508
2017-02-24T08:31:44.072Z,7828
2017-02-24T08:32:42.177Z,7920
2017-02-24T08:33:42.483Z,8868
2017-02-24T08:34:42.538Z,9100
2017-02-24T08:35:42.613Z,9716
2017-02-24T08:36:42.519Z,9844
2017-02-24T08:37:42.149Z,9740
2017-02-24T08:38:42.591Z,9424
2017-02-24T08:39:42.164Z,9080
2017-02-24T08:40:42.066Z,9972
2017-02-24T08:41:42.642Z,8744
2017-02-24T08:42:43.848Z,9028
2017-02-24T08:43:57.161Z,1440
2017-02-24T08:44:42.711Z,1540
2017-02-24T08:45:42.675Z,1508
2017-02-24T08:46:42.717Z,8384
2017-02-24T08:47:42.301Z,10604
2017-02-24T08:48:42.703Z,10224
2017-02-24T08:49:41.925Z,10264
2017-02-24T08:50:42.374Z,1908
2017-02-24T08:51:43.753Z,1832
2017-02-24T08:52:42.752Z,9440
2017-02-24T08:53:43.672Z,4916
2017-02-24T08:54:42.764Z,3584
2017-02-24T08:55:42.721Z,1980
2017-02-24T08:56:42.413Z,1952
2017-02-24T08:57:42.453Z,1708
2017-02-24T08:58:42.828Z,11112
2017-02-24T08:59:42.021Z,9812
2017-02-24T09:00:42.433Z,4300
2017-02-24T09:01:42.397Z,2976
2017-02-24T09:02:44.175Z,2172
2017-02-24T09:03:42.870Z,2448
2017-02-24T09:04:43.344Z,7236
2017-02-24T09:05:42.486Z,11052
2017-02-24T09:06:42.905Z,9176
2017-02-24T09:07:42.550Z,1336
2017-02-24T09:08:42.561Z,960
2017-02-24T09:09:42.891Z,1688
2017-02-24T09:10:42.597Z,776
2017-02-24T09:11:42.911Z,852
2017-02-24T09:12:42.523Z,1140
2017-02-24T09:13:43.828Z,1588
2017-02-24T09:14:42.186Z,2056
2017-02-24T09:15:42.930Z,2772
2017-02-24T09:16:42.953Z,11176
2017-02-24T09:17:42.566Z,12172
2017-02-24T09:18:43.010Z,12960
2017-02-24T09:19:42.572Z,12576
2017-02-24T09:20:42.545Z,5116
2017-02-24T09:21:43.063Z,1416
2017-02-24T09:22:43.119Z,872
2017-02-24T09:23:43.035Z,960
2017-02-24T09:24:43.492Z,12992
2017-02-24T09:25:43.081Z,2656
2017-02-24T09:26:42.731Z,3860
2017-02-24T09:27:43.712Z,13792
2017-02-24T09:28:42.731Z,12552
2017-02-24T09:29:42.761Z,13664
2017-02-24T09:30:43.082Z,14400
2017-02-24T09:31:43.175Z,10420
2017-02-24T09:32:42.845Z,14656
2017-02-24T09:33:42.801Z,5160
2017-02-24T09:34:42.844Z,12896
2017-02-24T09:35:43.030Z,14880
2017-02-24T09:36:43.209Z,2212
2017-02-24T09:37:43.178Z,15648
2017-02-24T09:38:43.230Z,14816
2017-02-24T09:39:44.310Z,1556
2017-02-24T09:40:43.259Z,856
2017-02-24T09:41:42.821Z,776
2017-02-24T09:42:43.245Z,16800
2017-02-24T09:43:43.489Z,15808
2017-02-24T09:44:42.917Z,16032
2017-02-24T09:45:43.308Z,16096
2017-02-24T09:46:43.265Z,12448
2017-02-24T09:47:43.340Z,6912
2017-02-24T09:48:43.365Z,3228
2017-02-24T09:49:43.346Z,3084
2017-02-24T09:50:44.083Z,3208
2017-02-24T09:51:42.914Z,1688
2017-02-24T09:52:43.425Z,1300
2017-02-24T09:53:43.379Z,1000
2017-02-24T09:54:43.532Z,1968
2017-02-24T09:55:43.403Z,1528
2017-02-24T09:56:43.443Z,1128
2017-02-24T09:57:43.155Z,2488
2017-02-24T09:58:43.361Z,2684
2017-02-24T09:59:42.967Z,2612
2017-02-24T10:00:43.348Z,2660
2017-02-24T10:01:44.170Z,2832
2017-02-24T10:02:42.981Z,2808
2017-02-24T10:03:43.432Z,2724
2017-02-24T10:04:42.652Z,2436
2017-02-24T10:05:43.042Z,1736
2017-02-24T10:06:43.068Z,2700
2017-02-24T10:07:43.479Z,2552
2017-02-24T10:08:42.712Z,2744
2017-02-24T10:09:43.463Z,2648
2017-02-24T10:10:45.002Z,1892
2017-02-24T10:11:43.440Z,2180
2017-02-24T10:12:44.286Z,2000
2017-02-24T10:13:43.141Z,1788
2017-02-24T10:14:43.490Z,1140
2017-02-24T10:15:43.558Z,1680
2017-02-24T10:16:43.552Z,1072
2017-02-24T10:17:43.555Z,924
2017-02-24T10:18:43.468Z,964
2017-02-24T10:19:43.511Z,1012
2017-02-24T10:20:43.569Z,1000
2017-02-24T10:21:45.447Z,1032
2017-02-24T10:22:43.476Z,1180
2017-02-24T10:23:44.156Z,2224
2017-02-24T10:24:43.213Z,1456
2017-02-24T10:25:44.347Z,1392
2017-02-24T10:26:43.546Z,1364
2017-02-24T10:27:43.501Z,1340
2017-02-24T10:28:43.512Z,2108
2017-02-24T10:29:43.611Z,2176
2017-02-24T10:30:43.167Z,2060
2017-02-24T10:31:43.575Z,2084
2017-02-24T10:32:44.646Z,2044
2017-02-24T10:33:43.594Z,1924
2017-02-24T10:34:43.884Z,1876
2017-02-24T10:35:43.635Z,1800
2017-02-24T10:36:43.584Z,1784
2017-02-24T10:37:43.616Z,1956
2017-02-24T10:38:43.195Z,1920
2017-02-24T10:39:43.599Z,1936
2017-02-24T10:40:43.164Z,1348
2017-02-24T10:41:43.653Z,1556
2017-02-24T10:42:43.622Z,1884
2017-02-24T10:43:44.682Z,2180
2017-02-24T10:44:43.669Z,1388
2017-02-24T10:45:43.866Z,1256
2017-02-24T10:46:42.838Z,1176
2017-02-24T10:47:43.578Z,1668
2017-02-24T10:48:43.690Z,1132
2017-02-24T10:49:43.353Z,1096
2017-02-24T10:50:44.105Z,1076
2017-02-24T10:51:43.668Z,1076
2017-02-24T10:52:43.552Z,1032
2017-02-24T10:53:43.280Z,1036
2017-02-24T10:54:44.874Z,1104
2017-02-24T10:55:43.679Z,1780
2017-02-24T10:56:43.935Z,1860
2017-02-24T10:57:43.725Z,1820
2017-02-24T10:58:43.639Z,1788
2017-02-24T10:59:43.336Z,1772
2017-02-24T11:00:43.745Z,1732
2017-02-24T11:01:43.707Z,1724
2017-02-24T11:02:43.690Z,1712
2017-02-24T11:03:43.708Z,1704
2017-02-24T11:04:43.668Z,1720
2017-02-24T11:05:44.952Z,1732
2017-02-24T11:06:43.659Z,1652
2017-02-24T11:07:44.159Z,1780
2017-02-24T11:08:43.418Z,1424
2017-02-24T11:09:43.728Z,1404
2017-02-24T11:10:43.732Z,1208
2017-02-24T11:11:43.293Z,1012
2017-02-24T11:12:43.750Z,952
2017-02-24T11:13:42.946Z,916
2017-02-24T11:14:43.738Z,892
2017-02-24T11:15:43.765Z,844
2017-02-24T11:16:45.303Z,844
2017-02-24T11:17:43.307Z,904
2017-02-24T11:18:44.268Z,884
2017-02-24T11:19:43.788Z,848
2017-02-24T11:20:43.819Z,852
2017-02-24T11:21:43.366Z,856
2017-02-24T11:22:43.333Z,872
2017-02-24T11:23:43.392Z,932
2017-02-24T11:24:43.732Z,968
2017-02-24T11:25:43.734Z,876
2017-02-24T11:26:43.895Z,780
2017-02-24T11:27:45.013Z,708
2017-02-24T11:28:43.816Z,672
2017-02-24T11:29:44.255Z,656
2017-02-24T11:30:43.365Z,660
2017-02-24T11:31:43.862Z,732
2017-02-24T11:32:43.759Z,644
2017-02-24T11:33:43.815Z,636
2017-02-24T11:34:43.433Z,644
2017-02-24T11:35:43.374Z,676
2017-02-24T11:36:43.840Z,692
2017-02-24T11:37:43.842Z,688
2017-02-24T11:38:44.900Z,676
2017-02-24T11:39:43.497Z,676
2017-02-24T11:40:44.065Z,720
2017-02-24T11:41:43.430Z,736
2017-02-24T11:42:43.806Z,936
2017-02-24T11:43:43.516Z,1096
2017-02-24T11:44:43.471Z,872
2017-02-24T11:45:43.808Z,896
2017-02-24T11:46:43.444Z,924
2017-02-24T11:47:43.872Z,936
2017-02-24T11:48:43.882Z,916
2017-02-24T11:49:44.769Z,876
2017-02-24T11:50:43.944Z,856
2017-02-24T11:51:44.494Z,868
2017-02-24T11:52:43.901Z,872
2017-02-24T11:53:44.601Z,876
2017-02-24T11:54:43.517Z,888
2017-02-24T11:55:43.457Z,888
2017-02-24T11:56:43.865Z,856
2017-02-24T11:57:43.915Z,852
2017-02-24T11:58:43.873Z,832
2017-02-24T11:59:43.530Z,848
2017-02-24T12:00:44.994Z,872
2017-02-24T12:01:44.031Z,900
2017-02-24T12:02:44.225Z,856
2017-02-24T12:03:43.933Z,808
2017-02-24T12:04:44.009Z,780
2017-02-24T12:05:43.909Z,804
2017-02-24T12:06:44.157Z,840
2017-02-24T12:07:43.920Z,884
2017-02-24T12:08:43.556Z,892
2017-02-24T12:09:43.906Z,880
2017-02-24T12:10:44.015Z,800
2017-02-24T12:11:44.928Z,724
2017-02-24T12:12:43.641Z,700
2017-02-24T12:13:44.134Z,968
2017-02-24T12:14:44.032Z,972
2017-02-24T12:15:43.543Z,964
2017-02-24T12:16:43.994Z,956
2017-02-24T12:17:43.990Z,912
2017-02-24T12:18:43.649Z,892
2017-02-24T12:19:43.650Z,872
2017-02-24T12:20:43.692Z,868
2017-02-24T12:21:43.557Z,884
2017-02-24T12:22:44.915Z,900
2017-02-24T12:23:43.673Z,916
2017-02-24T12:24:44.193Z,924
2017-02-24T12:25:43.685Z,944
2017-02-24T12:26:44.077Z,964
2017-02-24T12:27:43.983Z,1008
2017-02-24T12:28:43.987Z,1032
2017-02-24T12:29:43.192Z,1068
2017-02-24T12:30:43.984Z,1104
2017-02-24T12:31:43.991Z,1156
2017-02-24T12:32:43.644Z,1188
2017-02-24T12:33:44.721Z,1240
2017-02-24T12:34:44.103Z,1240
2017-02-24T12:35:44.206Z,1328
2017-02-24T12:36:43.626Z,1300
2017-02-24T12:37:44.067Z,1336
2017-02-24T12:38:43.917Z,1164
2017-02-24T12:39:43.692Z,1208
2017-02-24T12:40:43.327Z,1148
2017-02-24T12:41:44.044Z,1124
2017-02-24T12:42:43.745Z,1108
2017-02-24T12:43:44.082Z,1164
2017-02-24T12:44:44.898Z,1276
2017-02-24T12:45:43.647Z,1324
2017-02-24T12:46:44.114Z,1372
2017-02-24T12:47:43.709Z,1404
2017-02-24T12:48:44.051Z,1448
2017-02-24T12:49:44.159Z,1420
2017-02-24T12:50:43.723Z,1332
2017-02-24T12:51:44.223Z,1252
2017-02-24T12:52:44.076Z,1184
2017-02-24T12:53:44.184Z,1176
2017-02-24T12:54:44.101Z,1152
2017-02-24T12:55:45.286Z,1104
2017-02-24T12:56:43.701Z,1056
2017-02-24T12:57:44.292Z,1064
2017-02-24T12:58:44.094Z,920
2017-02-24T12:59:43.817Z,856
2017-02-24T13:00:43.813Z,816
2017-02-24T13:01:44.113Z,788
2017-02-24T13:02:44.171Z,796
2017-02-24T13:03:44.177Z,836
2017-02-24T13:04:45.168Z,860
2017-02-24T13:05:44.174Z,824
2017-02-24T13:06:45.142Z,808
2017-02-24T13:07:44.199Z,832
2017-02-24T13:08:44.206Z,824
2017-02-24T13:09:44.258Z,824
2017-02-24T13:10:44.227Z,844
2017-02-24T13:11:44.255Z,816
2017-02-24T13:12:44.176Z,800
2017-02-24T13:13:43.782Z,784
2017-02-24T13:14:43.820Z,740
2017-02-24T13:15:45.185Z,708
2017-02-24T13:16:44.172Z,672
2017-02-24T13:17:45.088Z,640
2017-02-24T13:18:44.182Z,624
2017-02-24T13:19:44.280Z,612
2017-02-24T13:20:44.280Z,556
2017-02-24T13:21:44.181Z,528
2017-02-24T13:22:43.447Z,500
2017-02-24T13:23:44.212Z,500
2017-02-24T13:24:44.250Z,500
2017-02-24T13:25:44.311Z,524
2017-02-24T13:26:43.812Z,568
2017-02-24T13:27:44.263Z,784
2017-02-24T13:28:46.262Z,956
2017-02-24T13:29:44.281Z,4908
2017-02-24T13:30:44.426Z,804
2017-02-24T13:31:44.232Z,1916
2017-02-24T13:32:44.327Z,3020
2017-02-24T13:33:43.938Z,832
2017-02-24T13:34:44.332Z,836
2017-02-24T13:35:44.300Z,856
2017-02-24T13:36:44.301Z,800
2017-02-24T13:37:43.913Z,804
2017-02-24T13:38:44.350Z,876
2017-02-24T13:39:44.771Z,5652
2017-02-24T13:40:43.566Z,8668
2017-02-24T13:41:44.323Z,2940
2017-02-24T13:42:44.272Z,1116
2017-02-24T13:43:44.031Z,952
2017-02-24T13:44:43.931Z,980
2017-02-24T13:45:43.997Z,876
2017-02-24T13:46:44.344Z,864
2017-02-24T13:47:44.298Z,2440
2017-02-24T13:48:44.817Z,860
2017-02-24T13:49:44.309Z,1372
2017-02-24T13:50:45.208Z,764
2017-02-24T13:51:44.358Z,756
2017-02-24T13:52:44.522Z,716
2017-02-24T13:53:44.315Z,712
2017-02-24T13:54:44.370Z,664
2017-02-24T13:55:44.428Z,752
2017-02-24T13:56:43.983Z,732
2017-02-24T13:57:44.345Z,664
2017-02-24T13:58:44.397Z,632
2017-02-24T13:59:44.460Z,716
2017-02-24T14:00:44.445Z,756
2017-02-24T14:01:45.354Z,768
2017-02-24T14:02:44.371Z,752
2017-02-24T14:03:44.570Z,740
2017-02-24T14:04:44.370Z,736